createdAt,value
2023-12-09T00:00:33.722Z,9.747383
2023-12-09T00:01:33.758Z,9.747321
2023-12-09T00:02:33.607Z,9.747397
2023-12-09T00:03:33.705Z,9.747455
2023-12-09T00:04:33.660Z,9.747538
2023-12-09T00:05:33.627Z,9.747428
2023-12-09T00:06:33.663Z,9.747435
2023-12-09T00:07:33.569Z,9.747356
2023-12-09T00:08:34.325Z,9.747349
2023-12-09T00:09:33.567Z,9.747374
2023-12-09T00:10:33.670Z,9.747544
2023-12-09T00:11:33.551Z,9.747483
2023-12-09T00:12:33.574Z,9.747605
2023-12-09T00:13:33.528Z,9.747345
2023-12-09T00:14:33.545Z,9.747470
2023-12-09T00:15:33.558Z,9.747401
2023-12-09T00:16:33.550Z,9.747397
2023-12-09T00:17:33.507Z,9.747499
2023-12-09T00:18:33.642Z,9.747480
2023-12-09T00:19:33.564Z,9.747484
2023-12-09T00:20:33.471Z,9.747735
2023-12-09T00:21:33.566Z,9.747579
2023-12-09T00:22:33.468Z,9.747498
2023-12-09T00:23:33.449Z,9.747559
2023-12-09T00:24:33.504Z,9.747519
2023-12-09T00:25:33.447Z,9.747564
2023-12-09T00:26:33.521Z,9.747418
2023-12-09T00:27:33.489Z,9.747571
2023-12-09T00:28:33.411Z,9.747730
2023-12-09T00:29:33.441Z,9.747603
2023-12-09T00:30:33.505Z,9.747651
2023-12-09T00:31:33.386Z,9.747420
2023-12-09T00:32:33.423Z,9.747425
2023-12-09T00:33:33.512Z,9.747426
2023-12-09T00:34:33.409Z,9.747162
2023-12-09T00:35:33.383Z,9.747422
2023-12-09T00:36:33.449Z,9.747674
2023-12-09T00:37:33.365Z,9.747502
2023-12-09T00:38:33.435Z,9.747742
2023-12-09T00:39:33.596Z,9.747485
2023-12-09T00:40:33.322Z,9.746675
2023-12-09T00:41:33.319Z,9.746893
2023-12-09T00:42:33.360Z,9.747139
2023-12-09T00:43:33.444Z,9.747434
2023-12-09T00:44:33.296Z,9.747216
2023-12-09T00:45:33.376Z,9.747246
2023-12-09T00:46:33.274Z,9.747412
2023-12-09T00:47:33.281Z,9.747109
2023-12-09T00:48:33.400Z,9.747233
2023-12-09T00:49:33.384Z,9.747366
2023-12-09T00:50:33.245Z,9.747325
2023-12-09T00:51:33.365Z,9.747247
2023-12-09T00:52:33.277Z,9.747317
2023-12-09T00:53:33.277Z,9.747198
2023-12-09T00:54:33.264Z,9.747236
2023-12-09T00:55:34.233Z,9.747251
2023-12-09T00:56:35.391Z,9.746814
2023-12-09T00:57:33.442Z,9.747148
2023-12-09T00:58:33.205Z,9.747399
2023-12-09T00:59:33.177Z,9.747228
2023-12-09T01:00:33.227Z,9.747211
2023-12-09T01:01:33.157Z,9.747211
2023-12-09T01:02:33.290Z,9.747211
2023-12-09T01:03:33.246Z,9.747211
2023-12-09T01:04:33.168Z,9.747211
2023-12-09T01:05:33.194Z,9.747211
2023-12-09T01:06:33.266Z,9.747274
2023-12-09T01:07:33.144Z,9.747350
2023-12-09T01:08:33.117Z,9.747375
2023-12-09T01:09:33.148Z,9.747410
2023-12-09T01:10:33.122Z,9.747363
2023-12-09T01:11:33.109Z,9.747363
2023-12-09T01:12:33.138Z,9.747437
2023-12-09T01:13:33.088Z,9.747279
2023-12-09T01:14:33.063Z,9.747614
2023-12-09T01:15:33.132Z,9.747734
2023-12-09T01:16:33.070Z,9.747690
2023-12-09T01:17:33.116Z,9.747265
2023-12-09T01:18:33.106Z,9.747438
2023-12-09T01:19:33.053Z,9.747382
2023-12-09T01:20:33.094Z,9.747547
2023-12-09T01:21:33.081Z,9.747545
2023-12-09T01:22:32.991Z,9.747536
2023-12-09T01:23:33.001Z,9.747583
2023-12-09T01:24:33.027Z,9.747519
2023-12-09T01:25:33.003Z,9.747430
2023-12-09T01:26:32.987Z,9.747397
2023-12-09T01:27:32.982Z,9.747419
2023-12-09T01:28:32.946Z,9.747388
2023-12-09T01:29:32.947Z,9.747379
2023-12-09T01:30:33.007Z,9.747414
2023-12-09T01:31:32.927Z,9.747433
2023-12-09T01:32:33.956Z,9.747424
2023-12-09T01:33:33.056Z,9.747473
2023-12-09T01:34:33.192Z,9.747405
2023-12-09T01:35:32.930Z,9.747371
2023-12-09T01:36:32.968Z,9.747358
2023-12-09T01:37:32.888Z,9.747405
2023-12-09T01:38:32.908Z,9.747392
2023-12-09T01:39:33.030Z,9.747396
2023-12-09T01:40:32.924Z,9.747294
2023-12-09T01:41:32.895Z,9.747414
2023-12-09T01:42:32.895Z,9.747352
2023-12-09T01:43:32.844Z,9.747351
2023-12-09T01:44:32.874Z,9.747325
2023-12-09T01:45:32.894Z,9.747295
2023-12-09T01:46:32.833Z,9.747389
2023-12-09T01:47:32.845Z,9.747362
2023-12-09T01:48:33.158Z,9.747280
2023-12-09T01:49:32.962Z,9.747312
2023-12-09T01:50:32.991Z,9.747372
2023-12-09T01:51:32.834Z,9.747365
2023-12-09T01:52:32.784Z,9.747436
2023-12-09T01:53:32.806Z,9.747394
2023-12-09T01:54:32.807Z,9.747352
2023-12-09T01:55:32.780Z,9.747163
2023-12-09T01:56:32.759Z,9.747190
2023-12-09T01:57:32.805Z,9.747230
2023-12-09T01:58:32.767Z,9.747334
2023-12-09T01:59:32.758Z,9.747367
2023-12-09T02:00:32.795Z,9.747328
2023-12-09T02:01:32.737Z,9.747341
2023-12-09T02:02:32.794Z,9.747320
2023-12-09T02:03:32.815Z,9.747290
2023-12-09T02:04:32.768Z,9.747367
2023-12-09T02:05:32.710Z,9.747318
2023-12-09T02:06:32.703Z,9.747232
2023-12-09T02:07:32.742Z,9.747280
2023-12-09T02:08:32.715Z,9.747284
2023-12-09T02:09:32.660Z,9.747410
2023-12-09T02:10:32.644Z,9.747396
2023-12-09T02:11:32.640Z,9.747585
2023-12-09T02:12:32.705Z,9.747396
2023-12-09T02:13:32.623Z,9.746791
2023-12-09T02:14:32.619Z,9.746495
2023-12-09T02:15:32.632Z,9.747025
2023-12-09T02:16:32.644Z,9.747177
2023-12-09T02:17:32.680Z,9.747206
2023-12-09T02:18:32.666Z,9.747270
2023-12-09T02:19:32.638Z,9.747370
2023-12-09T02:20:32.591Z,9.747343
2023-12-09T02:21:32.628Z,9.747439
2023-12-09T02:22:32.558Z,9.747381
2023-12-09T02:23:32.549Z,9.747290
2023-12-09T02:24:32.584Z,9.747498
2023-12-09T02:25:32.546Z,9.747600
2023-12-09T02:26:32.560Z,9.747577
2023-12-09T02:27:32.537Z,9.747514
2023-12-09T02:28:32.544Z,9.747254
2023-12-09T02:29:32.501Z,9.747360
2023-12-09T02:30:32.578Z,9.747266
2023-12-09T02:31:32.543Z,9.747266
2023-12-09T02:32:32.552Z,9.747318
2023-12-09T02:33:32.586Z,9.747460
2023-12-09T02:34:32.618Z,9.747401
2023-12-09T02:35:32.481Z,9.747277
2023-12-09T02:36:32.600Z,9.746942
2023-12-09T02:37:32.463Z,9.747230
2023-12-09T02:38:32.431Z,9.747281
2023-12-09T02:39:32.478Z,9.747262
2023-12-09T02:40:32.455Z,9.747266
2023-12-09T02:41:32.416Z,9.747123
2023-12-09T02:42:32.454Z,9.747180
2023-12-09T02:43:32.396Z,9.747105
2023-12-09T02:44:32.427Z,9.747150
2023-12-09T02:45:32.476Z,9.747172
2023-12-09T02:46:32.381Z,9.747182
2023-12-09T02:47:32.402Z,9.747225
2023-12-09T02:48:32.490Z,9.747209
2023-12-09T02:49:33.518Z,9.747468
2023-12-09T02:50:32.345Z,9.747304
2023-12-09T02:51:32.464Z,9.747302
2023-12-09T02:52:32.376Z,9.747372
2023-12-09T02:53:32.325Z,9.747279
2023-12-09T02:54:32.444Z,9.747326
2023-12-09T02:55:32.321Z,9.747298
2023-12-09T02:56:32.306Z,9.747348
2023-12-09T02:57:32.323Z,9.747161
2023-12-09T02:58:32.290Z,9.747286
2023-12-09T02:59:32.308Z,9.747268
2023-12-09T03:00:32.366Z,9.747262
2023-12-09T03:01:32.292Z,9.747283
2023-12-09T03:02:32.255Z,9.747323
2023-12-09T03:03:32.339Z,9.747360
2023-12-09T03:04:32.293Z,9.747331
2023-12-09T03:05:32.256Z,9.747327
2023-12-09T03:06:32.269Z,9.747268
2023-12-09T03:07:32.216Z,9.747376
2023-12-09T03:08:32.268Z,9.747381
2023-12-09T03:09:32.253Z,9.747366
2023-12-09T03:10:32.194Z,9.747336
2023-12-09T03:11:32.190Z,9.747296
2023-12-09T03:12:32.246Z,9.747323
2023-12-09T03:13:32.228Z,9.747375
2023-12-09T03:14:32.170Z,9.747391
2023-12-09T03:15:32.202Z,9.747329
2023-12-09T03:16:32.158Z,9.747291
2023-12-09T03:17:32.294Z,9.747368
2023-12-09T03:18:32.394Z,9.747292
2023-12-09T03:19:32.209Z,9.747321
2023-12-09T03:20:32.120Z,9.747417
2023-12-09T03:21:32.158Z,9.747357
2023-12-09T03:22:32.161Z,9.747333
2023-12-09T03:23:32.099Z,9.747362
2023-12-09T03:24:32.118Z,9.747355
2023-12-09T03:25:32.087Z,9.747347
2023-12-09T03:26:32.070Z,9.747356
2023-12-09T03:27:32.116Z,9.747315
2023-12-09T03:28:32.064Z,9.747276
2023-12-09T03:29:32.057Z,9.747338
2023-12-09T03:30:32.180Z,9.747362
2023-12-09T03:31:32.042Z,9.747380
2023-12-09T03:32:32.145Z,9.747351
2023-12-09T03:33:32.118Z,9.747455
2023-12-09T03:34:32.135Z,9.747486
2023-12-09T03:35:32.001Z,9.747358
2023-12-09T03:36:32.132Z,9.747416
2023-12-09T03:37:32.020Z,9.747396
2023-12-09T03:38:31.980Z,9.747344
2023-12-09T03:39:32.084Z,9.747364
2023-12-09T03:40:31.972Z,9.747409
2023-12-09T03:41:31.999Z,9.747464
2023-12-09T03:42:31.993Z,9.747308
2023-12-09T03:43:31.963Z,9.747357
2023-12-09T03:44:31.941Z,9.747429
2023-12-09T03:45:31.982Z,9.747225
2023-12-09T03:46:31.948Z,9.747363
2023-12-09T03:47:31.937Z,9.747401
2023-12-09T03:48:32.152Z,9.747499
2023-12-09T03:49:31.995Z,9.747466
2023-12-09T03:50:31.922Z,9.747435
2023-12-09T03:51:31.980Z,9.747404
2023-12-09T03:52:31.872Z,9.747416
2023-12-09T03:53:31.869Z,9.747394
2023-12-09T03:54:31.922Z,9.747495
2023-12-09T03:55:31.895Z,9.747416
2023-12-09T03:56:31.839Z,9.747354
2023-12-09T03:57:31.875Z,9.747363
2023-12-09T03:58:32.829Z,9.747315
2023-12-09T04:00:03.820Z,9.747348
2023-12-09T04:00:31.848Z,9.747375
2023-12-09T04:01:31.853Z,9.747382
2023-12-09T04:02:31.801Z,9.747435
2023-12-09T04:03:31.880Z,9.747483
2023-12-09T04:04:31.888Z,9.747428
2023-12-09T04:05:31.813Z,9.747396
2023-12-09T04:06:31.782Z,9.747402
2023-12-09T04:07:31.761Z,9.747435
2023-12-09T04:08:31.767Z,9.747391
2023-12-09T04:09:31.822Z,9.747371
2023-12-09T04:10:31.747Z,9.747339
2023-12-09T04:11:31.723Z,9.747363
2023-12-09T04:12:31.739Z,9.747391
2023-12-09T04:13:31.717Z,9.747429
2023-12-09T04:14:32.741Z,9.747399
2023-12-09T04:15:31.808Z,9.747257
2023-12-09T04:16:31.760Z,9.747284
2023-12-09T04:17:31.715Z,9.747307
2023-12-09T04:18:31.794Z,9.747334
2023-12-09T04:19:31.883Z,9.747498
2023-12-09T04:20:31.722Z,9.747421
2023-12-09T04:21:31.738Z,9.747392
2023-12-09T04:22:31.657Z,9.747355
2023-12-09T04:23:31.674Z,9.747366
2023-12-09T04:24:31.708Z,9.747334
2023-12-09T04:25:31.640Z,9.747313
2023-12-09T04:26:31.620Z,9.747295
2023-12-09T04:27:31.648Z,9.747305
2023-12-09T04:28:31.642Z,9.747409
2023-12-09T04:29:31.607Z,9.747420
2023-12-09T04:30:31.602Z,9.747351
2023-12-09T04:31:31.585Z,9.747390
2023-12-09T04:32:31.622Z,9.747375
2023-12-09T04:33:31.584Z,9.747302
2023-12-09T04:34:31.563Z,9.747441
2023-12-09T04:35:31.577Z,9.747334
2023-12-09T04:36:31.741Z,9.747267
2023-12-09T04:37:31.567Z,9.747272
2023-12-09T04:38:31.524Z,9.747360
2023-12-09T04:39:31.520Z,9.747356
2023-12-09T04:40:31.525Z,9.747365
2023-12-09T04:41:31.524Z,9.747279
2023-12-09T04:42:31.733Z,9.747308
2023-12-09T04:43:31.501Z,9.747349
2023-12-09T04:44:31.495Z,9.747349
2023-12-09T04:45:31.517Z,9.747297
2023-12-09T04:46:31.469Z,9.747293
2023-12-09T04:47:31.544Z,9.747295
2023-12-09T04:48:31.721Z,9.747280
2023-12-09T04:49:31.546Z,9.747281
2023-12-09T04:50:31.464Z,9.747174
2023-12-09T04:51:31.548Z,9.747171
2023-12-09T04:52:31.453Z,9.747153
2023-12-09T04:53:31.416Z,9.747243
2023-12-09T04:54:31.478Z,9.747291
2023-12-09T04:55:31.421Z,9.747335
2023-12-09T04:56:31.418Z,9.747349
2023-12-09T04:57:31.476Z,9.747299
2023-12-09T04:58:31.383Z,9.747277
2023-12-09T04:59:31.373Z,9.747257
2023-12-09T05:00:31.410Z,9.747348
2023-12-09T05:01:31.426Z,9.747344
2023-12-09T05:02:31.339Z,9.747420
2023-12-09T05:03:31.442Z,9.747405
2023-12-09T05:04:31.389Z,9.747386
2023-12-09T05:05:31.370Z,9.747454
2023-12-09T05:06:31.453Z,9.747427
2023-12-09T05:07:31.317Z,9.747431
2023-12-09T05:08:31.310Z,9.747512
2023-12-09T05:09:31.317Z,9.747536
2023-12-09T05:10:31.310Z,9.747495
2023-12-09T05:11:31.329Z,9.747456
2023-12-09T05:12:31.693Z,9.747378
2023-12-09T05:13:31.293Z,9.747441
2023-12-09T05:14:31.273Z,9.747388
2023-12-09T05:15:33.582Z,9.747435
2023-12-09T05:16:32.244Z,9.747225
2023-12-09T05:17:31.279Z,9.747341
2023-12-09T05:18:31.373Z,9.747261
2023-12-09T05:19:31.345Z,9.747381
2023-12-09T05:20:31.245Z,9.747440
2023-12-09T05:21:35.622Z,9.747420
2023-12-09T05:22:32.199Z,9.747399
2023-12-09T05:23:31.192Z,9.747294
2023-12-09T05:24:31.232Z,9.747394
2023-12-09T05:25:31.195Z,9.747409
2023-12-09T05:26:31.179Z,9.747435
2023-12-09T05:27:31.248Z,9.747322
2023-12-09T05:28:31.175Z,9.747344
2023-12-09T05:29:31.180Z,9.747265
2023-12-09T05:30:31.156Z,9.747231
2023-12-09T05:31:31.131Z,9.747409
2023-12-09T05:32:31.164Z,9.747426
2023-12-09T05:33:31.244Z,9.747355
2023-12-09T05:34:31.307Z,9.747437
2023-12-09T05:35:31.113Z,9.747404
2023-12-09T05:36:31.159Z,9.747362
2023-12-09T05:37:31.146Z,9.747547
2023-12-09T05:38:31.117Z,9.747408
2023-12-09T05:39:31.138Z,9.747386
2023-12-09T05:40:34.254Z,9.747334
2023-12-09T05:41:31.072Z,9.747339
2023-12-09T05:42:31.342Z,9.747319
2023-12-09T05:43:31.072Z,9.747346
2023-12-09T05:44:31.032Z,9.747331
2023-12-09T05:45:31.115Z,9.747280
2023-12-09T05:46:31.034Z,9.747355
2023-12-09T05:47:31.024Z,9.747372
2023-12-09T05:48:31.152Z,9.747216
2023-12-09T05:49:31.094Z,9.747375
2023-12-09T05:50:31.004Z,9.747393
2023-12-09T05:51:31.146Z,9.747387
2023-12-09T05:52:31.029Z,9.747358
2023-12-09T05:53:31.023Z,9.747401
2023-12-09T05:54:30.995Z,9.747416
2023-12-09T05:55:30.961Z,9.747499
2023-12-09T05:56:30.975Z,9.747427
2023-12-09T05:57:31.301Z,9.747330
2023-12-09T05:58:30.944Z,9.747375
2023-12-09T05:59:30.932Z,9.747444
2023-12-09T06:00:31.170Z,9.747529
2023-12-09T06:01:31.028Z,9.747424
2023-12-09T06:02:31.000Z,9.747437
2023-12-09T06:03:30.964Z,9.747437
2023-12-09T06:04:30.925Z,9.747294
2023-12-09T06:05:30.920Z,9.747422
2023-12-09T06:06:31.226Z,9.747356
2023-12-09T06:07:31.269Z,9.747385
2023-12-09T06:08:30.907Z,9.747458
2023-12-09T06:09:30.926Z,9.747288
2023-12-09T06:10:30.852Z,9.747325
2023-12-09T06:11:30.871Z,9.747372
2023-12-09T06:12:31.190Z,9.747380
2023-12-09T06:13:30.823Z,9.747438
2023-12-09T06:14:30.824Z,9.747397
2023-12-09T06:15:30.848Z,9.747494
2023-12-09T06:16:30.856Z,9.747487
2023-12-09T06:17:30.816Z,9.747494
2023-12-09T06:18:30.876Z,9.747451
2023-12-09T06:19:30.842Z,9.747514
2023-12-09T06:20:30.777Z,9.747345
2023-12-09T06:21:30.850Z,9.747504
2023-12-09T06:22:30.780Z,9.747486
2023-12-09T06:23:30.764Z,9.747533
2023-12-09T06:24:30.833Z,9.747398
2023-12-09T06:25:30.768Z,9.747383
2023-12-09T06:26:30.747Z,9.747410
2023-12-09T06:27:30.797Z,9.747392
2023-12-09T06:28:30.718Z,9.747380
2023-12-09T06:29:30.713Z,9.747327
2023-12-09T06:30:30.788Z,9.747319
2023-12-09T06:31:30.703Z,9.747404
2023-12-09T06:32:30.941Z,9.747328
2023-12-09T06:33:30.787Z,9.747485
2023-12-09T06:34:30.721Z,9.747441
2023-12-09T06:35:30.673Z,9.747355
2023-12-09T06:36:30.680Z,9.747374
2023-12-09T06:37:30.768Z,9.747334
2023-12-09T06:38:30.637Z,9.747366
2023-12-09T06:39:30.716Z,9.747424
2023-12-09T06:40:30.669Z,9.747353
2023-12-09T06:41:30.631Z,9.747360
2023-12-09T06:42:30.806Z,9.747345
2023-12-09T06:43:30.609Z,9.747368
2023-12-09T06:44:30.618Z,9.747227
2023-12-09T06:45:30.582Z,9.747293
2023-12-09T06:46:30.593Z,9.747349
2023-12-09T06:47:30.645Z,9.747355
2023-12-09T06:48:30.751Z,9.747341
2023-12-09T06:49:30.636Z,9.747398
2023-12-09T06:50:30.545Z,9.747383
2023-12-09T06:51:30.591Z,9.747395
2023-12-09T06:52:30.553Z,9.747381
2023-12-09T06:53:30.562Z,9.747368
2023-12-09T06:54:30.638Z,9.747418
2023-12-09T06:55:30.527Z,9.747388
2023-12-09T06:56:30.517Z,9.747393
2023-12-09T06:57:30.519Z,9.747327
2023-12-09T06:58:30.560Z,9.747394
2023-12-09T06:59:30.495Z,9.747381
2023-12-09T07:00:30.536Z,9.747389
2023-12-09T07:01:30.517Z,9.747399
2023-12-09T07:02:40.999Z,9.747328
2023-12-09T07:03:32.565Z,9.747420
2023-12-09T07:04:30.673Z,9.747383
2023-12-09T07:05:30.471Z,9.747358
2023-12-09T07:06:30.491Z,9.747323
2023-12-09T07:07:30.425Z,9.747350
2023-12-09T07:08:30.926Z,9.747327
2023-12-09T07:09:31.439Z,9.747277
2023-12-09T07:10:30.400Z,9.747361
2023-12-09T07:11:30.410Z,9.747334
2023-12-09T07:12:30.748Z,9.747284
2023-12-09T07:13:30.444Z,9.747347
2023-12-09T07:14:30.374Z,9.747301
2023-12-09T07:15:30.394Z,9.747300
2023-12-09T07:16:30.368Z,9.747323
2023-12-09T07:17:30.401Z,9.747375
2023-12-09T07:18:30.479Z,9.747247
2023-12-09T07:19:30.387Z,9.747375
2023-12-09T07:20:30.351Z,9.747354
2023-12-09T07:21:30.472Z,9.747388
2023-12-09T07:22:30.461Z,9.747341
2023-12-09T07:23:30.330Z,9.747305
2023-12-09T07:24:30.379Z,9.747405
2023-12-09T07:25:30.296Z,9.747403
2023-12-09T07:26:30.283Z,9.747383
2023-12-09T07:27:30.430Z,9.747328
2023-12-09T07:28:30.288Z,9.747397
2023-12-09T07:29:32.257Z,9.747323
2023-12-09T07:30:31.297Z,9.747270
2023-12-09T07:31:30.256Z,9.747346
2023-12-09T07:32:30.628Z,9.747336
2023-12-09T07:33:30.331Z,9.747337
2023-12-09T07:34:30.289Z,9.747253
2023-12-09T07:35:30.247Z,9.747235
2023-12-09T07:36:30.303Z,9.747279
2023-12-09T07:37:30.343Z,9.747368
2023-12-09T07:38:30.204Z,9.747328
2023-12-09T07:39:30.204Z,9.747322
2023-12-09T07:40:30.184Z,9.747390
2023-12-09T07:41:30.227Z,9.747304
2023-12-09T07:42:30.672Z,9.747324
2023-12-09T07:43:30.161Z,9.747330
2023-12-09T07:44:30.166Z,9.747415
2023-12-09T07:45:30.216Z,9.747516
2023-12-09T07:46:30.173Z,9.747384
2023-12-09T07:47:30.196Z,9.747339
2023-12-09T07:48:30.196Z,9.747401
2023-12-09T07:49:30.209Z,9.747560
2023-12-09T07:50:30.135Z,9.747419
2023-12-09T07:51:30.225Z,9.747520
2023-12-09T07:52:30.278Z,9.747329
2023-12-09T07:53:30.102Z,9.747441
2023-12-09T07:54:30.124Z,9.747451
2023-12-09T07:55:30.109Z,9.747373
2023-12-09T07:56:30.069Z,9.747266
2023-12-09T07:57:30.096Z,9.747519
2023-12-09T07:58:30.059Z,9.747461
2023-12-09T07:59:30.053Z,9.747389
2023-12-09T08:00:30.161Z,9.747412
2023-12-09T08:01:30.056Z,9.747544
2023-12-09T08:02:30.029Z,9.747383
2023-12-09T08:03:30.083Z,9.747512
2023-12-09T08:04:30.081Z,9.747499
2023-12-09T08:05:30.077Z,9.747346
2023-12-09T08:06:31.002Z,9.747426
2023-12-09T08:07:30.187Z,9.747368
2023-12-09T08:08:29.986Z,9.747453
2023-12-09T08:09:30.019Z,9.747430
2023-12-09T08:10:30.021Z,9.747478
2023-12-09T08:11:29.966Z,9.747460
2023-12-09T08:12:30.181Z,9.747442
2023-12-09T08:13:29.958Z,9.747440
2023-12-09T08:14:29.960Z,9.747358
2023-12-09T08:15:29.963Z,9.747557
2023-12-09T08:16:29.934Z,9.747513
2023-12-09T08:17:30.217Z,9.747526
2023-12-09T08:18:30.121Z,9.747483
2023-12-09T08:19:30.018Z,9.747609
2023-12-09T08:20:29.894Z,9.747575
2023-12-09T08:21:29.921Z,9.747629
2023-12-09T08:22:30.020Z,9.747647
2023-12-09T08:23:29.865Z,9.747430
2023-12-09T08:24:29.962Z,9.747334
2023-12-09T08:25:29.858Z,9.747416
2023-12-09T08:26:29.851Z,9.747497
2023-12-09T08:27:29.849Z,9.747484
2023-12-09T08:28:29.837Z,9.747634
2023-12-09T08:29:30.156Z,9.747613
2023-12-09T08:30:29.910Z,9.747543
2023-12-09T08:31:29.813Z,9.747456
2023-12-09T08:32:29.923Z,9.747548
2023-12-09T08:33:29.935Z,9.747558
2023-12-09T08:34:29.894Z,9.747473
2023-12-09T08:35:30.844Z,9.747558
2023-12-09T08:36:29.810Z,9.747244
2023-12-09T08:37:29.790Z,9.747295
2023-12-09T08:38:29.781Z,9.747306
2023-12-09T08:39:29.815Z,9.747307
2023-12-09T08:40:29.744Z,9.747680
2023-12-09T08:41:30.941Z,9.747810
2023-12-09T08:42:31.057Z,9.747245
2023-12-09T08:43:29.752Z,9.747248
2023-12-09T08:44:29.726Z,9.747676
2023-12-09T08:45:29.761Z,9.747838
2023-12-09T08:46:29.697Z,9.747868
2023-12-09T08:47:29.734Z,9.747857
2023-12-09T08:48:29.860Z,9.747642
2023-12-09T08:49:29.780Z,9.747581
2023-12-09T08:50:29.680Z,9.747678
2023-12-09T08:51:29.688Z,9.747480
2023-12-09T08:52:29.926Z,9.747684
2023-12-09T08:53:29.672Z,9.747550
2023-12-09T08:54:29.661Z,9.747304
2023-12-09T08:55:30.647Z,9.747137
2023-12-09T08:56:29.632Z,9.747346
2023-12-09T08:57:29.668Z,9.747819
2023-12-09T08:58:29.638Z,9.748114
2023-12-09T08:59:29.604Z,9.747720
2023-12-09T09:00:30.398Z,9.747415
2023-12-09T09:01:29.666Z,9.747502
2023-12-09T09:02:29.645Z,9.747568
2023-12-09T09:03:29.659Z,9.747498
2023-12-09T09:04:29.599Z,9.747486
2023-12-09T09:05:29.674Z,9.747518
2023-12-09T09:06:29.622Z,9.747457
2023-12-09T09:07:29.600Z,9.747560
2023-12-09T09:08:29.550Z,9.747533
2023-12-09T09:09:29.690Z,9.747450
2023-12-09T09:10:29.539Z,9.747554
2023-12-09T09:11:29.546Z,9.747429
2023-12-09T09:12:29.802Z,9.747392
2023-12-09T09:13:30.433Z,9.747576
2023-12-09T09:14:29.501Z,9.747408
2023-12-09T09:15:29.642Z,9.747340
2023-12-09T09:16:29.490Z,9.747479
2023-12-09T09:17:29.583Z,9.747543
2023-12-09T09:18:29.698Z,9.747678
2023-12-09T09:19:30.548Z,9.747362
2023-12-09T09:20:29.466Z,9.747502
2023-12-09T09:21:29.519Z,9.747432
2023-12-09T09:22:29.726Z,9.747322
2023-12-09T09:23:30.302Z,9.747467
2023-12-09T09:24:29.492Z,9.747594
2023-12-09T09:25:29.480Z,9.747975
2023-12-09T09:26:29.449Z,9.747587
2023-12-09T09:27:29.483Z,9.747334
2023-12-09T09:28:29.406Z,9.747573
2023-12-09T09:29:29.411Z,9.747317
2023-12-09T09:30:29.438Z,9.747941
2023-12-09T09:31:29.404Z,9.747492
2023-12-09T09:32:29.612Z,9.747473
2023-12-09T09:33:31.877Z,9.747676
2023-12-09T09:34:30.404Z,9.747468
2023-12-09T09:35:29.354Z,9.747487
2023-12-09T09:36:29.420Z,9.747472
2023-12-09T09:37:29.363Z,9.747579
2023-12-09T09:38:29.328Z,9.747569
2023-12-09T09:39:29.348Z,9.747355
2023-12-09T09:40:29.388Z,9.747526
2023-12-09T09:41:29.326Z,9.747579
2023-12-09T09:42:29.632Z,9.747393
2023-12-09T09:43:29.292Z,9.747462
2023-12-09T09:44:29.304Z,9.747540
2023-12-09T09:45:32.101Z,9.747456
2023-12-09T09:46:29.264Z,9.747196
2023-12-09T09:47:29.277Z,9.747542
2023-12-09T09:48:29.365Z,9.747499
2023-12-09T09:49:29.310Z,9.747456
2023-12-09T09:50:29.423Z,9.747369
2023-12-09T09:51:29.276Z,9.747266
2023-12-09T09:52:29.368Z,9.747243
2023-12-09T09:53:29.213Z,9.747371
2023-12-09T09:54:29.276Z,9.747279
2023-12-09T09:55:29.546Z,9.747395
2023-12-09T09:56:29.189Z,9.747218
2023-12-09T09:57:29.326Z,9.747304
2023-12-09T09:58:29.184Z,9.747337
2023-12-09T09:59:29.193Z,9.747436
2023-12-09T10:01:01.888Z,9.747448
2023-12-09T10:01:29.174Z,9.747408
2023-12-09T10:02:29.393Z,9.747282
2023-12-09T10:03:29.188Z,9.747508
2023-12-09T10:04:29.204Z,9.747490
2023-12-09T10:05:29.117Z,9.747447
2023-12-09T10:06:29.202Z,9.747432
2023-12-09T10:07:29.153Z,9.747395
2023-12-09T10:08:29.192Z,9.747367
2023-12-09T10:09:29.216Z,9.747541
2023-12-09T10:10:29.096Z,9.747665
2023-12-09T10:11:29.069Z,9.747448
2023-12-09T10:12:29.359Z,9.747466
2023-12-09T10:13:29.080Z,9.747509
2023-12-09T10:14:30.069Z,9.747526
2023-12-09T10:15:29.070Z,9.747480
2023-12-09T10:16:29.041Z,9.747507
2023-12-09T10:17:29.044Z,9.747584
2023-12-09T10:18:29.160Z,9.747409
2023-12-09T10:19:29.113Z,9.747320
2023-12-09T10:20:29.015Z,9.747444
2023-12-09T10:21:29.069Z,9.747675
2023-12-09T10:22:29.374Z,9.747557
2023-12-09T10:23:29.025Z,9.747155
2023-12-09T10:24:29.055Z,9.747374
2023-12-09T10:25:28.996Z,9.747398
2023-12-09T10:26:28.964Z,9.747390
2023-12-09T10:27:29.028Z,9.747391
2023-12-09T10:28:28.959Z,9.747340
2023-12-09T10:29:28.937Z,9.747412
2023-12-09T10:30:29.060Z,9.747447
2023-12-09T10:31:28.934Z,9.747442
2023-12-09T10:32:29.275Z,9.747604
2023-12-09T10:33:29.145Z,9.747455
2023-12-09T10:34:29.041Z,9.747689
2023-12-09T10:35:28.911Z,9.747529
2023-12-09T10:36:28.896Z,9.747725
2023-12-09T10:37:28.925Z,9.747553
2023-12-09T10:38:28.888Z,9.747657
2023-12-09T10:39:28.901Z,9.747713
2023-12-09T10:40:28.856Z,9.747470
2023-12-09T10:41:28.881Z,9.747400
2023-12-09T10:42:29.171Z,9.747377
2023-12-09T10:43:28.843Z,9.747375
2023-12-09T10:44:28.858Z,9.747423
2023-12-09T10:45:28.890Z,9.747464
2023-12-09T10:46:28.878Z,9.747387
2023-12-09T10:47:28.883Z,9.747288
2023-12-09T10:48:29.027Z,9.747383
2023-12-09T10:49:28.871Z,9.747468
2023-12-09T10:50:28.791Z,9.747492
2023-12-09T10:51:28.866Z,9.747408
2023-12-09T10:52:28.990Z,9.747517
2023-12-09T10:53:28.774Z,9.747621
2023-12-09T10:54:28.774Z,9.747529
2023-12-09T10:55:28.773Z,9.747524
2023-12-09T10:56:28.769Z,9.747517
2023-12-09T10:57:28.760Z,9.747455
2023-12-09T10:58:28.746Z,9.747478
2023-12-09T10:59:28.728Z,9.747511
2023-12-09T11:00:28.796Z,9.747386
2023-12-09T11:01:28.772Z,9.747456
2023-12-09T11:02:28.924Z,9.747417
2023-12-09T11:03:28.749Z,9.747450
2023-12-09T11:04:28.849Z,9.747489
2023-12-09T11:05:28.736Z,9.747473
2023-12-09T11:06:28.726Z,9.747507
2023-12-09T11:07:28.674Z,9.747622
2023-12-09T11:08:28.652Z,9.747562
2023-12-09T11:09:28.711Z,9.747482
2023-12-09T11:10:28.660Z,9.747504
2023-12-09T11:11:28.623Z,9.747523
2023-12-09T11:12:28.876Z,9.747527
2023-12-09T11:13:28.993Z,9.747589
2023-12-09T11:14:28.623Z,9.747596
2023-12-09T11:15:28.614Z,9.747663
2023-12-09T11:16:28.588Z,9.747720
2023-12-09T11:17:28.789Z,9.747474
2023-12-09T11:18:28.646Z,9.747589
2023-12-09T11:19:28.715Z,9.747632
2023-12-09T11:20:28.639Z,9.747542
2023-12-09T11:21:28.609Z,9.747581
2023-12-09T11:22:28.792Z,9.747613
2023-12-09T11:23:28.574Z,9.747606
2023-12-09T11:24:28.592Z,9.747587
2023-12-09T11:25:28.544Z,9.747613
2023-12-09T11:26:28.524Z,9.747553
2023-12-09T11:27:28.548Z,9.747572
2023-12-09T11:28:28.542Z,9.747542
2023-12-09T11:29:28.503Z,9.747536
2023-12-09T11:30:28.503Z,9.747465
2023-12-09T11:31:28.483Z,9.747566
2023-12-09T11:32:28.619Z,9.747490
2023-12-09T11:33:28.575Z,9.747402
2023-12-09T11:34:28.720Z,9.747563
2023-12-09T11:35:28.459Z,9.747573
2023-12-09T11:36:29.601Z,9.747518
2023-12-09T11:37:29.514Z,9.747687
2023-12-09T11:38:28.480Z,9.747760
2023-12-09T11:39:28.459Z,9.747725
2023-12-09T11:40:28.416Z,9.747665
2023-12-09T11:41:28.418Z,9.747670
2023-12-09T11:42:28.985Z,9.747547
2023-12-09T11:43:28.420Z,9.747433
2023-12-09T11:44:28.389Z,9.747489